createdAt,value
2023-01-19T00:01:26.711Z,9.10
2023-01-19T00:06:28.366Z,9.37
2023-01-19T00:11:30.096Z,9.03
2023-01-19T00:16:31.782Z,9.57
2023-01-19T00:21:33.426Z,9.67
2023-01-19T00:26:34.996Z,9.50
2023-01-19T00:31:36.812Z,10.07
2023-01-19T00:36:38.367Z,9.10
2023-01-19T00:41:58.582Z,8.97
2023-01-19T00:47:01.001Z,9.40
2023-01-19T00:52:02.584Z,9.60
2023-01-19T00:57:04.289Z,9.00
2023-01-19T01:02:06.244Z,8.23
2023-01-19T01:07:07.913Z,8.27
2023-01-19T01:12:09.469Z,8.83
2023-01-19T01:17:11.586Z,8.13
2023-01-19T01:22:13.161Z,8.87
2023-01-19T01:27:14.779Z,7.93
2023-01-19T01:32:17.184Z,8.37
2023-01-19T01:37:18.717Z,7.53
2023-01-19T01:42:26.609Z,8.23
2023-01-19T01:47:36.270Z,8.27
2023-01-19T01:52:42.811Z,8.00
2023-01-19T01:58:05.255Z,8.10
2023-01-19T02:03:06.976Z,8.20
2023-01-19T02:08:46.174Z,8.57
2023-01-19T02:13:48.290Z,7.80
2023-01-19T02:18:50.010Z,8.37
2023-01-19T02:23:54.075Z,9.20
2023-01-19T02:29:00.671Z,8.60
2023-01-19T02:34:03.396Z,8.40
2023-01-19T02:39:06.007Z,8.30
2023-01-19T02:44:09.032Z,8.20
2023-01-19T02:49:10.648Z,8.33
2023-01-19T02:54:50.673Z,8.30
2023-01-19T02:59:55.260Z,7.00
2023-01-19T03:05:06.062Z,8.10
2023-01-19T03:10:12.824Z,7.97
2023-01-19T03:15:23.834Z,7.63
2023-01-19T03:20:28.702Z,6.77
2023-01-19T03:25:33.253Z,6.87
2023-01-19T03:30:40.792Z,6.33
2023-01-19T03:35:48.860Z,6.93
2023-01-19T03:40:52.480Z,6.27
2023-01-19T03:45:55.281Z,6.43
2023-01-19T03:50:56.885Z,6.83
2023-01-19T03:55:58.470Z,6.50
2023-01-19T04:01:00.090Z,6.47
2023-01-19T04:06:02.166Z,7.40
2023-01-19T04:11:03.911Z,7.10
2023-01-19T04:16:07.475Z,7.30
2023-01-19T04:21:09.214Z,7.27
2023-01-19T04:26:10.803Z,6.93
2023-01-19T04:31:12.537Z,6.53
2023-01-19T04:36:14.189Z,7.80
2023-01-19T04:41:15.834Z,7.60
2023-01-19T04:46:17.432Z,7.03
2023-01-19T04:51:19.105Z,6.53
2023-01-19T04:56:20.657Z,6.97
2023-01-19T05:01:22.656Z,6.57
2023-01-19T05:06:24.273Z,6.47
2023-01-19T05:11:25.825Z,7.30
2023-01-19T05:16:27.450Z,6.50
2023-01-19T05:21:29.020Z,6.13
2023-01-19T05:26:30.659Z,5.90
2023-01-19T05:31:32.323Z,6.33
2023-01-19T05:36:34.018Z,7.13
2023-01-19T05:41:35.819Z,6.60
2023-01-19T05:46:37.873Z,6.50
2023-01-19T05:51:40.444Z,5.93
2023-01-19T05:56:42.685Z,6.00
2023-01-19T06:01:44.281Z,5.80
2023-01-19T06:06:49.704Z,6.07
2023-01-19T06:11:54.085Z,5.83
2023-01-19T06:16:55.755Z,6.40
2023-01-19T06:21:57.723Z,7.10
2023-01-19T06:27:00.324Z,6.17
2023-01-19T06:32:01.918Z,6.77
2023-01-19T06:37:03.934Z,6.00
2023-01-19T06:42:05.514Z,5.63
2023-01-19T06:47:15.032Z,4.80
2023-01-19T06:52:18.373Z,5.13
2023-01-19T06:57:19.948Z,4.97
2023-01-19T07:02:26.783Z,5.20
2023-01-19T07:07:29.917Z,5.13
2023-01-19T07:12:31.666Z,4.63
2023-01-19T07:17:33.599Z,5.40
2023-01-19T07:22:35.192Z,4.70
2023-01-19T07:27:36.889Z,4.27
2023-01-19T07:32:38.988Z,5.13
2023-01-19T07:37:40.581Z,4.80
2023-01-19T07:42:49.077Z,4.60
2023-01-19T07:47:51.067Z,4.67
2023-01-19T07:52:53.600Z,4.23
2023-01-19T07:57:55.193Z,4.40
2023-01-19T08:03:00.457Z,4.30
2023-01-19T08:08:02.296Z,4.30
2023-01-19T08:13:04.105Z,5.30
2023-01-19T08:18:06.822Z,4.63
2023-01-19T08:23:08.419Z,4.13
2023-01-19T08:28:11.674Z,4.73
2023-01-19T08:33:13.764Z,4.80
2023-01-19T08:38:16.854Z,4.73
2023-01-19T08:43:18.515Z,4.93
2023-01-19T08:48:22.341Z,5.30
2023-01-19T08:53:24.235Z,4.63
2023-01-19T08:58:25.995Z,4.63
2023-01-19T09:03:27.637Z,4.67
2023-01-19T09:08:29.252Z,4.20
2023-01-19T09:13:30.832Z,4.63
2023-01-19T09:18:32.407Z,4.83
2023-01-19T09:23:34.156Z,5.43
2023-01-19T09:28:37.590Z,5.23
2023-01-19T09:33:39.316Z,4.83
2023-01-19T09:38:40.991Z,4.60
2023-01-19T09:43:56.348Z,4.67
2023-01-19T09:49:01.440Z,5.27
2023-01-19T09:54:16.276Z,4.80
2023-01-19T09:59:21.908Z,4.50
2023-01-19T10:04:31.454Z,4.27
2023-01-19T10:10:11.455Z,4.50
2023-01-19T10:15:34.627Z,4.40
2023-01-19T10:20:50.153Z,4.73
2023-01-19T10:25:52.243Z,4.13
2023-01-19T10:30:56.951Z,4.43
2023-01-19T10:35:58.555Z,4.00
2023-01-19T10:41:07.683Z,5.07
2023-01-19T10:46:22.373Z,4.67
2023-01-19T10:51:24.147Z,5.00
2023-01-19T10:56:36.451Z,4.60
2023-01-19T11:01:38.334Z,4.63
2023-01-19T11:06:39.984Z,4.33
2023-01-19T11:11:43.930Z,4.33
2023-01-19T11:16:51.173Z,4.77
2023-01-19T11:21:53.547Z,4.43
2023-01-19T11:26:59.057Z,4.20
2023-01-19T11:32:12.379Z,4.37
2023-01-19T11:37:16.650Z,4.80
2023-01-19T11:42:19.240Z,4.70
2023-01-19T11:47:28.277Z,4.47
2023-01-19T11:52:57.882Z,4.63
2023-01-19T11:57:59.914Z,4.40
2023-01-19T12:03:09.764Z,4.10
2023-01-19T12:08:15.805Z,4.00
2023-01-19T12:13:22.635Z,4.33
2023-01-19T12:18:27.130Z,4.23
2023-01-19T12:23:28.633Z,4.90
2023-01-19T12:28:32.843Z,4.90
2023-01-19T12:33:38.802Z,4.70
2023-01-19T12:38:53.905Z,4.13
2023-01-19T12:44:14.035Z,4.23
2023-01-19T12:49:27.759Z,4.20
2023-01-19T12:54:31.725Z,4.33
2023-01-19T12:59:36.251Z,4.30
2023-01-19T13:04:38.422Z,4.07
2023-01-19T13:09:40.052Z,4.30
2023-01-19T13:14:42.916Z,7.47
2023-01-19T13:19:49.547Z,3.63
2023-01-19T13:25:10.550Z,3.33
2023-01-19T13:30:16.589Z,3.40
2023-01-19T13:35:19.298Z,2.97
2023-01-19T13:40:23.522Z,3.47
2023-01-19T13:45:33.344Z,3.30
2023-01-19T13:50:40.129Z,3.87
2023-01-19T13:55:41.712Z,3.93
2023-01-19T14:00:45.619Z,3.90
2023-01-19T14:05:51.649Z,3.60
2023-01-19T14:11:02.529Z,3.60
2023-01-19T14:16:17.504Z,3.43
2023-01-19T14:21:19.136Z,3.57
2023-01-19T14:26:49.613Z,3.40
2023-01-19T14:32:10.375Z,4.17
2023-01-19T14:37:32.191Z,4.90
2023-01-19T14:42:37.532Z,4.50
2023-01-19T14:47:41.690Z,5.00
2023-01-19T14:52:50.053Z,4.67
2023-01-19T14:57:51.607Z,3.73
2023-01-19T15:02:53.189Z,4.40
2023-01-19T15:07:55.190Z,4.40
2023-01-19T15:12:57.172Z,4.30
2023-01-19T15:18:00.248Z,3.93
2023-01-19T15:23:01.821Z,4.37
2023-01-19T15:28:10.776Z,4.10
2023-01-19T15:33:20.427Z,4.50
2023-01-19T15:38:22.469Z,4.40
2023-01-19T15:43:24.078Z,4.20
2023-01-19T15:48:25.716Z,4.93
2023-01-19T15:53:27.794Z,4.50
2023-01-19T15:58:29.353Z,4.90
2023-01-19T16:03:30.899Z,5.43
2023-01-19T16:08:32.510Z,5.10
2023-01-19T16:13:34.500Z,5.20
2023-01-19T16:18:36.290Z,5.20
2023-01-19T16:23:38.064Z,5.60
2023-01-19T16:28:39.616Z,5.00
2023-01-19T16:33:41.234Z,5.23
2023-01-19T16:38:42.832Z,5.73
2023-01-19T16:43:44.411Z,5.10
2023-01-19T16:48:45.982Z,5.30
2023-01-19T16:53:50.036Z,5.57
2023-01-19T16:58:55.730Z,8.70
2023-01-19T17:03:57.453Z,6.13
2023-01-19T17:08:59.253Z,5.20
2023-01-19T17:14:03.639Z,5.03
2023-01-19T17:19:06.347Z,6.50
2023-01-19T17:24:07.972Z,5.37
2023-01-19T17:29:10.240Z,5.60
2023-01-19T17:34:11.820Z,5.07
2023-01-19T17:39:14.819Z,5.50
2023-01-19T17:44:17.698Z,5.27
2023-01-19T17:49:19.382Z,5.47
2023-01-19T17:54:21.135Z,4.83
2023-01-19T17:59:22.745Z,5.27
2023-01-19T18:04:24.327Z,4.70
2023-01-19T18:09:25.909Z,5.23
2023-01-19T18:14:27.507Z,5.13
2023-01-19T18:19:29.151Z,5.23
2023-01-19T18:24:30.777Z,4.80
2023-01-19T18:29:32.420Z,5.23
2023-01-19T18:34:34.619Z,4.60
2023-01-19T18:39:36.240Z,4.63
2023-01-19T18:44:37.816Z,5.60
2023-01-19T18:49:39.375Z,5.90
2023-01-19T18:54:40.999Z,5.50
2023-01-19T18:59:43.865Z,7.27
2023-01-19T19:04:45.484Z,7.80
2023-01-19T19:09:47.074Z,6.20
2023-01-19T19:14:48.644Z,6.67
2023-01-19T19:19:50.233Z,6.30
2023-01-19T19:24:51.801Z,5.63
2023-01-19T19:29:53.868Z,6.80
2023-01-19T19:34:58.963Z,7.30
2023-01-19T19:40:00.526Z,6.87
2023-01-19T19:45:03.929Z,6.93
2023-01-19T19:50:05.921Z,7.80
2023-01-19T19:55:08.968Z,8.27
2023-01-19T20:00:11.363Z,8.10
2023-01-19T20:05:13.034Z,8.67
2023-01-19T20:10:15.142Z,8.20
2023-01-19T20:15:16.778Z,8.03
2023-01-19T20:20:18.505Z,7.70
2023-01-19T20:25:20.097Z,6.93
2023-01-19T20:30:22.440Z,6.90
2023-01-19T20:35:24.126Z,6.57
2023-01-19T20:40:25.712Z,7.27
2023-01-19T20:45:27.480Z,6.47
2023-01-19T20:50:29.097Z,7.20
2023-01-19T20:55:30.690Z,6.23
2023-01-19T21:00:32.457Z,6.70
2023-01-19T21:05:34.067Z,7.00
2023-01-19T21:10:35.658Z,6.90
2023-01-19T21:15:37.420Z,6.77
2023-01-19T21:20:39.049Z,6.73
2023-01-19T21:25:48.477Z,6.97
2023-01-19T21:31:08.146Z,7.27
2023-01-19T21:36:12.553Z,7.07
2023-01-19T21:41:16.239Z,7.60
2023-01-19T21:46:20.236Z,7.30
2023-01-19T21:51:21.878Z,7.27
2023-01-19T21:56:23.528Z,7.60
2023-01-19T22:01:25.545Z,7.43
2023-01-19T22:06:27.774Z,7.67
2023-01-19T22:11:29.989Z,7.13
2023-01-19T22:16:31.593Z,7.40
2023-01-19T22:21:35.668Z,7.67
2023-01-19T22:26:37.675Z,7.40
2023-01-19T22:31:39.948Z,7.00
2023-01-19T22:36:41.644Z,7.83
2023-01-19T22:41:45.160Z,7.60
2023-01-19T22:46:47.747Z,8.10
2023-01-19T22:51:49.470Z,8.77
2023-01-19T22:56:51.036Z,7.87
2023-01-19T23:01:52.885Z,8.10
2023-01-19T23:06:54.668Z,8.37
2023-01-19T23:11:56.278Z,8.10
2023-01-19T23:16:57.848Z,8.00
2023-01-19T23:21:59.442Z,8.17
2023-01-19T23:27:02.279Z,8.03
2023-01-19T23:32:04.128Z,8.43
2023-01-19T23:37:05.715Z,7.60
2023-01-19T23:42:08.169Z,8.27
2023-01-19T23:47:09.732Z,8.63
2023-01-19T23:52:11.279Z,8.63
2023-01-19T23:57:12.834Z,8.30
